createdAt,value
2023-03-20T00:01:30.681Z,64.40
2023-03-20T00:03:58.345Z,65.23
2023-03-20T00:06:27.156Z,65.40
2023-03-20T00:08:55.198Z,65.38
2023-03-20T00:11:30.998Z,65.36
2023-03-20T00:14:01.503Z,65.61
2023-03-20T00:16:43.189Z,65.51
2023-03-20T00:19:26.020Z,65.63
2023-03-20T00:21:54.996Z,65.93
2023-03-20T00:24:22.964Z,65.35
2023-03-20T00:26:51.177Z,65.22
2023-03-20T00:29:36.751Z,64.89
2023-03-20T00:32:04.074Z,65.08
2023-03-20T00:34:32.205Z,64.76
2023-03-20T00:37:00.104Z,64.64
2023-03-20T00:39:29.805Z,64.33
2023-03-20T00:42:06.254Z,64.61
2023-03-20T00:44:36.925Z,64.93
2023-03-20T00:47:06.733Z,65.71
2023-03-20T00:49:38.660Z,65.83
2023-03-20T00:52:09.819Z,65.70
2023-03-20T00:54:37.065Z,65.92
2023-03-20T00:57:14.495Z,65.16
2023-03-20T00:59:58.490Z,66.21
2023-03-20T01:02:28.969Z,67.15
2023-03-20T01:04:57.485Z,67.60
2023-03-20T01:07:27.648Z,67.66
2023-03-20T01:09:55.664Z,66.76
2023-03-20T01:12:23.889Z,66.45
2023-03-20T01:14:56.559Z,66.21
2023-03-20T01:17:25.294Z,66.21
2023-03-20T01:19:52.644Z,66.97
2023-03-20T01:22:20.025Z,66.31
2023-03-20T01:24:48.396Z,65.92
2023-03-20T01:27:18.568Z,66.56
2023-03-20T01:29:46.844Z,66.46
2023-03-20T01:32:17.925Z,66.40
2023-03-20T01:34:48.679Z,66.99
2023-03-20T01:37:23.286Z,67.49
2023-03-20T01:39:51.687Z,67.36
2023-03-20T01:42:19.347Z,67.14
2023-03-20T01:44:46.866Z,67.27
2023-03-20T01:47:21.125Z,67.30
2023-03-20T01:50:22.843Z,67.20
2023-03-20T01:53:07.679Z,66.95
2023-03-20T01:55:40.917Z,66.71
2023-03-20T01:58:15.341Z,66.24
2023-03-20T02:00:42.767Z,66.28
2023-03-20T02:03:14.241Z,67.21
2023-03-20T02:06:16.936Z,66.68
2023-03-20T02:08:59.134Z,66.48
2023-03-20T02:11:29.243Z,65.77
2023-03-20T02:13:58.935Z,65.82
2023-03-20T02:16:29.570Z,65.70
2023-03-20T02:19:11.359Z,65.41
2023-03-20T02:22:21.961Z,66.03
2023-03-20T02:25:15.928Z,65.90
2023-03-20T02:28:21.156Z,66.03
2023-03-20T02:31:14.734Z,66.33
2023-03-20T02:34:02.440Z,66.56
2023-03-20T02:36:54.226Z,66.68
2023-03-20T02:39:26.724Z,67.39
2023-03-20T02:42:00.191Z,67.55
2023-03-20T02:44:39.468Z,67.83
2023-03-20T02:47:14.720Z,68.59
2023-03-20T02:49:52.898Z,69.37
2023-03-20T02:52:51.782Z,68.94
2023-03-20T02:55:33.921Z,69.62
2023-03-20T02:58:09.309Z,69.84
2023-03-20T03:00:48.574Z,69.73
2023-03-20T03:03:34.352Z,69.66
2023-03-20T03:06:09.073Z,69.72
2023-03-20T03:08:41.359Z,69.54
2023-03-20T03:11:09.811Z,69.52
2023-03-20T03:13:42.146Z,69.35
2023-03-20T03:16:14.530Z,70.50
2023-03-20T03:18:42.949Z,71.00
2023-03-20T03:21:14.125Z,71.09
2023-03-20T03:23:49.138Z,70.51
2023-03-20T03:26:28.293Z,70.56
2023-03-20T03:29:02.679Z,70.13
2023-03-20T03:31:30.923Z,69.73
2023-03-20T03:33:59.784Z,69.42
2023-03-20T03:36:39.903Z,69.66
2023-03-20T03:39:19.487Z,69.59
2023-03-20T03:41:56.542Z,69.76
2023-03-20T03:44:47.071Z,68.74
2023-03-20T03:47:33.433Z,69.40
2023-03-20T03:50:05.663Z,69.51
2023-03-20T03:52:33.489Z,69.46
2023-03-20T03:55:03.947Z,69.01
2023-03-20T03:57:44.635Z,68.68
2023-03-20T04:00:18.144Z,68.24
2023-03-20T04:02:47.493Z,68.64
2023-03-20T04:05:16.192Z,68.24
2023-03-20T04:07:47.343Z,67.83
2023-03-20T04:10:15.456Z,67.82
2023-03-20T04:12:44.388Z,67.88
2023-03-20T04:15:12.824Z,68.17
2023-03-20T04:17:40.297Z,68.30
2023-03-20T04:20:09.915Z,68.08
2023-03-20T04:22:37.312Z,67.57
2023-03-20T04:25:16.291Z,67.70
2023-03-20T04:27:43.600Z,67.68
2023-03-20T04:30:18.985Z,67.71
2023-03-20T04:33:05.191Z,67.32
2023-03-20T04:35:44.432Z,67.02
2023-03-20T04:38:15.940Z,67.06
2023-03-20T04:40:44.920Z,66.73
2023-03-20T04:43:13.149Z,66.35
2023-03-20T04:45:41.504Z,65.32
2023-03-20T04:48:09.965Z,65.28
2023-03-20T04:50:37.669Z,65.77
2023-03-20T04:53:06.660Z,65.80
2023-03-20T04:55:34.633Z,66.08
2023-03-20T04:58:02.046Z,65.50
2023-03-20T05:00:30.205Z,65.71
2023-03-20T05:02:57.430Z,65.78
2023-03-20T05:05:25.698Z,65.43
2023-03-20T05:07:53.674Z,65.42
2023-03-20T05:10:30.696Z,65.87
2023-03-20T05:13:06.252Z,65.07
2023-03-20T05:15:54.030Z,65.34
2023-03-20T05:18:46.540Z,65.71
2023-03-20T05:21:32.457Z,66.55
2023-03-20T05:24:27.492Z,66.37
2023-03-20T05:27:17.949Z,65.89
2023-03-20T05:30:02.977Z,66.14
2023-03-20T05:32:51.026Z,65.38
2023-03-20T05:35:27.602Z,65.37
2023-03-20T05:38:23.484Z,65.42
2023-03-20T05:41:11.220Z,65.27
2023-03-20T05:43:46.484Z,65.00
2023-03-20T05:46:33.304Z,64.14
2023-03-20T05:49:09.719Z,64.26
2023-03-20T05:51:57.022Z,64.18
2023-03-20T05:54:31.756Z,64.15
2023-03-20T05:57:22.333Z,64.12
2023-03-20T05:59:52.750Z,63.34
2023-03-20T06:02:38.965Z,62.63
2023-03-20T06:05:26.159Z,62.90
2023-03-20T06:07:53.952Z,62.61
2023-03-20T06:10:21.138Z,62.51
2023-03-20T06:12:53.611Z,62.54
2023-03-20T06:15:29.194Z,62.54
2023-03-20T06:18:04.425Z,62.67
2023-03-20T06:20:32.202Z,62.30
2023-03-20T06:23:02.680Z,61.62
2023-03-20T06:25:30.585Z,62.00
2023-03-20T06:27:58.294Z,62.06
2023-03-20T06:30:25.727Z,61.95
2023-03-20T06:32:54.432Z,61.19
2023-03-20T06:35:24.393Z,61.36
2023-03-20T06:37:51.908Z,61.56
2023-03-20T06:40:23.549Z,61.41
2023-03-20T06:42:51.208Z,61.38
2023-03-20T06:45:19.640Z,60.73
2023-03-20T06:48:02.314Z,60.57
2023-03-20T06:50:30.766Z,60.92
2023-03-20T06:52:59.626Z,60.92
2023-03-20T06:55:32.899Z,61.19
2023-03-20T06:58:00.769Z,60.99
2023-03-20T07:00:29.773Z,61.17
2023-03-20T07:02:59.424Z,60.51
2023-03-20T07:05:28.647Z,60.24
2023-03-20T07:07:57.189Z,60.25
2023-03-20T07:10:24.628Z,60.66
2023-03-20T07:12:53.587Z,60.18
2023-03-20T07:15:21.221Z,59.66
2023-03-20T07:17:49.633Z,59.34
2023-03-20T07:20:17.186Z,58.82
2023-03-20T07:22:44.547Z,58.82
2023-03-20T07:25:20.562Z,58.75
2023-03-20T07:27:54.740Z,58.17
2023-03-20T07:30:24.594Z,58.12
2023-03-20T07:32:52.564Z,58.08
2023-03-20T07:35:21.175Z,58.26
2023-03-20T07:37:48.589Z,57.86
2023-03-20T07:40:16.217Z,58.12
2023-03-20T07:42:52.807Z,58.01
2023-03-20T07:45:39.033Z,57.90
2023-03-20T07:48:06.852Z,57.94
2023-03-20T07:50:34.270Z,57.93
2023-03-20T07:53:02.280Z,57.86
2023-03-20T07:55:29.537Z,57.60
2023-03-20T07:57:56.822Z,57.58
2023-03-20T08:00:26.104Z,57.85
2023-03-20T08:02:57.058Z,57.70
2023-03-20T08:05:25.035Z,57.67
2023-03-20T08:07:52.934Z,56.90
2023-03-20T08:10:20.502Z,56.97
2023-03-20T08:12:47.734Z,57.53
2023-03-20T08:15:15.298Z,56.51
2023-03-20T08:17:44.629Z,56.18
2023-03-20T08:20:14.465Z,56.28
2023-03-20T08:22:42.814Z,56.22
2023-03-20T08:25:10.824Z,55.97
2023-03-20T08:27:38.804Z,55.75
2023-03-20T08:30:07.149Z,55.94
2023-03-20T08:32:34.514Z,56.06
2023-03-20T08:35:01.848Z,56.19
2023-03-20T08:37:29.224Z,55.94
2023-03-20T08:39:56.455Z,55.44
2023-03-20T08:42:23.972Z,54.86
2023-03-20T08:44:51.346Z,54.79
2023-03-20T08:47:19.724Z,54.86
2023-03-20T08:49:47.228Z,55.15
2023-03-20T08:52:14.735Z,54.34
2023-03-20T08:54:42.417Z,54.37
2023-03-20T08:57:10.364Z,54.87
2023-03-20T08:59:38.011Z,54.77
2023-03-20T09:02:05.958Z,54.68
2023-03-20T09:04:33.451Z,54.51
2023-03-20T09:07:03.074Z,54.34
2023-03-20T09:09:30.943Z,54.62
2023-03-20T09:11:59.356Z,54.56
2023-03-20T09:14:28.670Z,53.92
2023-03-20T09:16:56.371Z,54.12
2023-03-20T09:19:23.741Z,53.93
2023-03-20T09:21:51.224Z,54.77
2023-03-20T09:24:18.616Z,54.77
2023-03-20T09:26:45.952Z,54.71
2023-03-20T09:29:13.353Z,54.20
2023-03-20T09:31:41.153Z,54.20
2023-03-20T09:34:08.838Z,54.11
2023-03-20T09:36:36.584Z,53.73
2023-03-20T09:39:04.749Z,53.66
2023-03-20T09:41:49.247Z,53.45
2023-03-20T09:45:13.544Z,53.41
2023-03-20T09:47:54.768Z,52.39
2023-03-20T09:50:38.715Z,52.48
2023-03-20T09:53:24.939Z,51.76
2023-03-20T09:55:53.906Z,52.02
2023-03-20T09:58:25.775Z,52.10
2023-03-20T10:00:56.196Z,52.53
2023-03-20T10:03:30.004Z,52.30
2023-03-20T10:06:03.585Z,51.85
2023-03-20T10:08:36.931Z,52.12
2023-03-20T10:11:10.237Z,51.91
2023-03-20T10:13:37.409Z,52.07
2023-03-20T10:16:12.724Z,53.48
2023-03-20T10:18:47.104Z,52.81
2023-03-20T10:21:24.178Z,51.70
2023-03-20T10:24:04.643Z,52.31
2023-03-20T10:26:36.246Z,52.55
2023-03-20T10:29:26.203Z,52.82
2023-03-20T10:32:02.826Z,52.40
2023-03-20T10:34:52.225Z,51.64
2023-03-20T10:37:32.686Z,51.31
2023-03-20T10:40:05.774Z,51.30
2023-03-20T10:42:39.619Z,52.42
2023-03-20T10:45:14.883Z,51.71
2023-03-20T10:47:48.536Z,50.89
2023-03-20T10:50:19.041Z,52.17
2023-03-20T10:52:48.605Z,50.64
2023-03-20T10:55:22.725Z,50.81
2023-03-20T10:57:56.685Z,51.49
2023-03-20T11:00:26.374Z,49.15
2023-03-20T11:02:53.681Z,49.41
2023-03-20T11:05:21.062Z,49.19
2023-03-20T11:07:52.844Z,49.07
2023-03-20T11:10:20.568Z,49.69
2023-03-20T11:12:49.209Z,50.22
2023-03-20T11:15:21.816Z,49.08
2023-03-20T11:18:07.291Z,48.69
2023-03-20T11:20:39.701Z,49.41
2023-03-20T11:23:10.754Z,49.56
2023-03-20T11:25:40.034Z,49.90
2023-03-20T11:28:19.677Z,49.61
2023-03-20T11:31:03.849Z,49.92
2023-03-20T11:33:40.338Z,48.88
2023-03-20T11:36:30.299Z,49.52
2023-03-20T11:39:27.932Z,49.03
2023-03-20T11:41:57.024Z,49.44
2023-03-20T11:44:26.741Z,49.71
2023-03-20T11:47:05.700Z,49.37
2023-03-20T11:49:34.974Z,49.83
2023-03-20T11:52:11.443Z,49.35
2023-03-20T11:54:46.604Z,49.31
2023-03-20T11:57:46.206Z,49.21
2023-03-20T12:00:21.489Z,49.75
2023-03-20T12:02:48.982Z,51.02
2023-03-20T12:05:33.133Z,49.99
2023-03-20T12:08:14.142Z,49.77
2023-03-20T12:10:43.697Z,51.03
2023-03-20T12:13:21.635Z,50.67
2023-03-20T12:15:55.820Z,50.40
2023-03-20T12:18:26.969Z,50.30
2023-03-20T12:21:10.294Z,50.15
2023-03-20T12:23:48.209Z,50.21
2023-03-20T12:26:20.504Z,49.32
2023-03-20T12:28:52.540Z,49.33
2023-03-20T12:31:34.277Z,48.72
2023-03-20T12:34:16.480Z,48.67
2023-03-20T12:36:52.954Z,48.68
2023-03-20T12:39:25.327Z,48.29
2023-03-20T12:42:02.317Z,48.06
2023-03-20T12:44:43.469Z,47.46
2023-03-20T12:47:33.284Z,47.82
2023-03-20T12:50:25.489Z,48.50
2023-03-20T12:53:11.749Z,48.12
2023-03-20T12:55:54.866Z,48.81
2023-03-20T12:58:36.634Z,48.35
2023-03-20T13:01:07.372Z,48.09
2023-03-20T13:04:12.549Z,49.05
2023-03-20T13:06:51.994Z,48.55
2023-03-20T13:09:57.300Z,49.66
2023-03-20T13:12:45.964Z,50.30
2023-03-20T13:15:23.919Z,49.97
2023-03-20T13:17:51.786Z,50.08
2023-03-20T13:20:27.014Z,51.33
2023-03-20T13:22:59.264Z,50.61
2023-03-20T13:25:35.848Z,51.04
2023-03-20T13:28:13.569Z,50.66
2023-03-20T13:30:50.339Z,51.32
2023-03-20T13:33:38.753Z,51.51
2023-03-20T13:36:19.140Z,51.37
2023-03-20T13:38:50.283Z,50.71
2023-03-20T13:41:17.697Z,50.42
2023-03-20T13:43:54.222Z,50.41
2023-03-20T13:46:27.961Z,50.83
2023-03-20T13:48:59.145Z,51.18
2023-03-20T13:51:34.438Z,50.88
2023-03-20T13:54:01.808Z,50.73
2023-03-20T13:56:44.797Z,51.23
2023-03-20T13:59:33.621Z,49.96
2023-03-20T14:02:18.839Z,49.29
2023-03-20T14:04:47.665Z,50.09
2023-03-20T14:07:33.957Z,50.54
2023-03-20T14:10:37.420Z,49.96
2023-03-20T14:13:10.136Z,49.62
2023-03-20T14:15:39.111Z,50.39
2023-03-20T14:18:13.441Z,50.42
2023-03-20T14:20:42.595Z,50.87
2023-03-20T14:23:30.066Z,50.39
2023-03-20T14:25:59.280Z,50.45
2023-03-20T14:28:31.549Z,51.10
2023-03-20T14:31:26.430Z,51.19
2023-03-20T14:34:12.184Z,50.56
2023-03-20T14:36:53.086Z,50.72
2023-03-20T14:39:44.530Z,50.19
2023-03-20T14:42:36.127Z,50.22
2023-03-20T14:45:42.457Z,49.30
2023-03-20T14:48:32.671Z,49.75
2023-03-20T14:51:11.856Z,49.84
2023-03-20T14:53:40.813Z,49.80
2023-03-20T14:56:13.647Z,49.60
2023-03-20T14:58:43.707Z,50.24
2023-03-20T15:01:26.153Z,50.61
2023-03-20T15:04:11.131Z,50.61
2023-03-20T15:06:49.985Z,50.47
2023-03-20T15:09:18.127Z,50.58
2023-03-20T15:11:46.640Z,50.67
2023-03-20T15:14:20.580Z,50.65
2023-03-20T15:16:47.967Z,50.53
2023-03-20T15:19:18.567Z,51.22
2023-03-20T15:21:48.031Z,51.70
2023-03-20T15:24:27.202Z,51.46
2023-03-20T15:26:57.986Z,51.21
2023-03-20T15:29:25.795Z,51.42
2023-03-20T15:32:12.476Z,52.15
2023-03-20T15:34:42.500Z,52.36
2023-03-20T15:37:15.359Z,52.63
2023-03-20T15:39:48.536Z,53.74
2023-03-20T15:42:18.315Z,53.52
2023-03-20T15:44:48.304Z,53.39
2023-03-20T15:47:21.316Z,53.48
2023-03-20T15:49:54.828Z,53.50
2023-03-20T15:52:42.633Z,53.49
2023-03-20T15:55:14.760Z,53.32
2023-03-20T15:57:44.952Z,53.07
2023-03-20T16:00:16.902Z,53.38
2023-03-20T16:02:48.277Z,53.58
2023-03-20T16:05:16.587Z,53.16
2023-03-20T16:07:44.184Z,52.92
2023-03-20T16:10:34.315Z,52.71
2023-03-20T16:13:01.585Z,52.99
2023-03-20T16:15:31.655Z,52.90
2023-03-20T16:18:01.952Z,52.77
2023-03-20T16:20:35.486Z,52.16
2023-03-20T16:23:08.561Z,51.83
2023-03-20T16:25:36.983Z,51.90
2023-03-20T16:28:07.415Z,52.43
2023-03-20T16:30:35.632Z,52.63
2023-03-20T16:33:12.943Z,54.12
2023-03-20T16:35:44.171Z,53.78
2023-03-20T16:38:26.012Z,53.55
2023-03-20T16:40:59.897Z,54.10
2023-03-20T16:43:30.945Z,53.72
2023-03-20T16:46:05.696Z,54.16
2023-03-20T16:48:37.493Z,53.72
2023-03-20T16:51:26.377Z,53.96
2023-03-20T16:53:59.172Z,53.76
2023-03-20T16:56:29.771Z,54.06
2023-03-20T16:58:57.397Z,54.48
2023-03-20T17:01:27.646Z,54.19
2023-03-20T17:04:11.915Z,55.01
2023-03-20T17:06:44.736Z,55.13
2023-03-20T17:09:25.850Z,54.85
2023-03-20T17:12:05.984Z,55.25
2023-03-20T17:14:34.381Z,54.90
2023-03-20T17:17:02.301Z,55.09
2023-03-20T17:19:32.407Z,54.69
2023-03-20T17:22:03.515Z,54.68
2023-03-20T17:24:31.034Z,55.39
2023-03-20T17:26:58.891Z,55.23
2023-03-20T17:29:27.117Z,55.56
2023-03-20T17:31:54.709Z,55.46
2023-03-20T17:34:22.468Z,55.68
2023-03-20T17:36:50.814Z,55.85
2023-03-20T17:39:19.818Z,55.33
2023-03-20T17:41:47.792Z,54.91
2023-03-20T17:44:16.224Z,54.55
2023-03-20T17:46:57.181Z,54.32
2023-03-20T17:49:27.530Z,54.58
2023-03-20T17:51:55.582Z,54.56
2023-03-20T17:54:22.859Z,54.40
2023-03-20T17:56:50.523Z,54.72
2023-03-20T17:59:18.420Z,54.74
2023-03-20T18:01:45.870Z,53.97
2023-03-20T18:04:13.212Z,53.94
2023-03-20T18:06:40.599Z,54.54
2023-03-20T18:09:12.664Z,54.20
2023-03-20T18:11:41.907Z,54.11
2023-03-20T18:14:09.238Z,54.24
2023-03-20T18:16:36.581Z,54.37
2023-03-20T18:19:03.835Z,55.42
2023-03-20T18:21:31.203Z,55.38
2023-03-20T18:23:58.438Z,55.66
2023-03-20T18:26:27.466Z,55.27
2023-03-20T18:28:55.623Z,54.62
2023-03-20T18:31:23.335Z,55.37
2023-03-20T18:33:52.883Z,55.81
2023-03-20T18:36:22.273Z,56.03
2023-03-20T18:38:50.731Z,56.69
2023-03-20T18:41:17.992Z,56.17
2023-03-20T18:43:46.654Z,56.64
2023-03-20T18:46:21.032Z,57.83
2023-03-20T18:48:49.703Z,57.28
2023-03-20T18:51:17.011Z,57.64
2023-03-20T18:53:44.558Z,57.77
2023-03-20T18:56:19.248Z,57.56
2023-03-20T18:58:47.498Z,57.57
2023-03-20T19:01:15.968Z,57.43
2023-03-20T19:03:44.689Z,58.01
2023-03-20T19:06:14.807Z,58.29
2023-03-20T19:08:42.516Z,58.69
2023-03-20T19:11:15.419Z,58.80
2023-03-20T19:13:51.115Z,58.71
2023-03-20T19:16:26.251Z,59.25
2023-03-20T19:18:55.467Z,59.15
2023-03-20T19:21:26.329Z,58.86
2023-03-20T19:23:55.314Z,57.98
2023-03-20T19:26:27.156Z,57.89
2023-03-20T19:28:56.180Z,58.58
2023-03-20T19:31:24.852Z,58.86
2023-03-20T19:33:52.456Z,58.70
2023-03-20T19:36:26.877Z,58.86
2023-03-20T19:38:55.106Z,58.56
2023-03-20T19:41:22.425Z,58.45
2023-03-20T19:43:55.579Z,58.20
2023-03-20T19:46:39.733Z,58.71
2023-03-20T19:49:17.961Z,59.91
2023-03-20T19:51:46.184Z,59.54
2023-03-20T19:54:13.509Z,60.19
2023-03-20T19:56:40.845Z,60.94
2023-03-20T19:59:08.440Z,60.62
2023-03-20T20:01:36.514Z,60.96
2023-03-20T20:04:04.126Z,61.32
2023-03-20T20:06:33.004Z,60.91
2023-03-20T20:09:01.559Z,61.56
2023-03-20T20:11:29.338Z,62.00
2023-03-20T20:14:06.732Z,62.04
2023-03-20T20:20:14.229Z,62.68
2023-03-20T20:22:41.945Z,62.64
2023-03-20T20:25:11.146Z,62.71
2023-03-20T20:27:39.090Z,62.32
2023-03-20T20:30:10.383Z,62.37
2023-03-20T20:32:38.774Z,62.60
2023-03-20T20:35:38.815Z,62.47
2023-03-20T20:40:43.844Z,62.02
2023-03-20T20:43:11.498Z,62.15
2023-03-20T20:45:39.126Z,62.50
2023-03-20T20:48:07.322Z,62.82
2023-03-20T20:50:39.143Z,62.04
2023-03-20T20:53:08.187Z,62.89
2023-03-20T20:55:35.551Z,64.34
2023-03-20T20:58:04.058Z,64.23
2023-03-20T21:00:45.768Z,63.87
2023-03-20T21:03:16.274Z,64.44
2023-03-20T21:05:43.613Z,64.52
2023-03-20T21:08:12.047Z,64.43
2023-03-20T21:10:40.061Z,64.05
2023-03-20T21:13:08.393Z,64.08
2023-03-20T21:15:36.546Z,63.87
2023-03-20T21:18:04.129Z,64.46
2023-03-20T21:20:32.143Z,64.92
2023-03-20T21:23:00.479Z,64.81
2023-03-20T21:25:47.101Z,65.34
2023-03-20T21:28:15.226Z,65.85
2023-03-20T21:31:16.202Z,66.16
2023-03-20T21:33:35.765Z,65.42
2023-03-20T21:36:04.222Z,65.46
2023-03-20T21:39:06.847Z,66.08
2023-03-20T21:41:19.876Z,65.83
2023-03-20T21:43:47.626Z,65.75
2023-03-20T21:46:46.749Z,66.48
2023-03-20T21:55:12.951Z,66.40
2023-03-20T22:01:03.218Z,65.45
2023-03-20T22:03:09.935Z,65.74
2023-03-20T22:09:19.769Z,65.96
2023-03-20T22:23:18.316Z,66.62
2023-03-20T22:42:35.306Z,66.78
2023-03-20T22:45:02.862Z,67.35
2023-03-20T22:47:31.336Z,67.91
2023-03-20T22:49:58.939Z,68.01
2023-03-20T22:52:37.902Z,67.15
2023-03-20T22:55:09.823Z,66.87
2023-03-20T22:57:45.521Z,66.46
2023-03-20T23:00:17.640Z,66.84
2023-03-20T23:02:45.959Z,66.59
2023-03-20T23:05:13.864Z,66.59
2023-03-20T23:07:41.201Z,67.01
2023-03-20T23:10:09.921Z,67.39
2023-03-20T23:12:38.172Z,66.86
2023-03-20T23:15:06.558Z,66.55
2023-03-20T23:17:33.844Z,65.59
2023-03-20T23:20:10.785Z,65.08
2023-03-20T23:22:38.491Z,65.24
2023-03-20T23:25:18.292Z,65.91
2023-03-20T23:27:51.387Z,66.45
2023-03-20T23:30:19.855Z,66.54
2023-03-20T23:32:48.254Z,66.99
2023-03-20T23:35:15.565Z,66.56
2023-03-20T23:37:42.815Z,66.28
2023-03-20T23:40:10.761Z,66.58
2023-03-20T23:42:38.116Z,66.05
2023-03-20T23:45:19.155Z,66.45
2023-03-20T23:47:48.329Z,66.54
2023-03-20T23:50:30.079Z,66.47
2023-03-20T23:53:13.055Z,66.41
2023-03-20T23:55:47.073Z,66.81
2023-03-20T23:58:14.790Z,66.37
